Flight Track Log - Related Links

Times and Time Zones

All times are in EDT time to prevent confusion due to time zone crossing. See the MTN8308 flight status page for this flight to view local times or setup timezone preferences in your user account.

Time Position Orientation Groundspeed Altitude Reporting Facility
EDT Latitude Longitude Course Direction KTS MPH feet Rate Location/Type
Fri 03:22:22 AM 40.7000 -74.1500 360° North 83 96 800  Level New York TRACON
Fri 03:23:16 AM 40.7167 -74.1500 360° North 106 122 1,500 789 Climbing New York TRACON
Fri 03:24:16 AM 40.7167 -74.1833 270° West 119 137 2,300 800 Climbing New York TRACON
Fri 03:25:16 AM 40.6833 -74.2333 229° Southwest 136 157 3,100 850 Climbing New York TRACON
Fri 03:26:16 AM 40.6667 -74.2667 237° Southwest 128 147 4,000 500 Climbing New York TRACON
Fri 03:27:16 AM 40.6333 -74.3000 217° Southwest 153 176 4,100 50 Climbing New York TRACON
Fri 03:28:16 AM 40.6000 -74.3500 229° Southwest 170 196 4,100  Level New York TRACON
Fri 03:29:16 AM 40.5833 -74.4000 246° West 172 198 4,100  Level New York TRACON
Fri 03:30:22 AM 40.5500 -74.4500 229° Southwest 174 200 4,100  Level New York TRACON
Fri 03:31:22 AM 40.5167 -74.5000 229° Southwest 174 200 4,100  Level New York TRACON
Fri 03:32:16 AM 40.4833 -74.5500 229° Southwest 174 200 4,100  Level New York TRACON
Fri 03:33:16 AM 40.4500 -74.6000 229° Southwest 177 204 4,100 -74 Level New York TRACON
Fri 03:34:58 AM 40.4000 -74.6667 225° Southwest 173 199 3,900 -37 Descending Philadelphia TRACON
Fri 03:35:58 AM 40.3667 -74.7167 229° Southwest 171 197 4,000 50 Climbing Philadelphia TRACON
Fri 03:36:58 AM 40.3333 -74.7667 229° Southwest 173 199 4,000  Level Philadelphia TRACON
Fri 03:37:52 AM 40.3167 -74.8167 246° West 170 196 4,000  Level Philadelphia TRACON
Fri 03:38:52 AM 40.2833 -74.8500 217° Southwest 169 194 4,000  Level Philadelphia TRACON
Fri 03:39:52 AM 40.2500 -74.9000 229° Southwest 168 193 4,000  Level Philadelphia TRACON
Fri 03:40:52 AM 40.2167 -74.9500 229° Southwest 169 194 4,000  Level Philadelphia TRACON
Fri 03:41:52 AM 40.2000 -75.0000 246° West 170 196 4,000  Level Philadelphia TRACON
Fri 03:42:52 AM 40.1667 -75.0500 229° Southwest 171 197 4,000  Level Philadelphia TRACON
Fri 03:43:52 AM 40.1333 -75.1000 229° Southwest 168 193 4,000  Level Philadelphia TRACON
Fri 03:44:52 AM 40.1167 -75.1500 246° West 169 194 4,000  Level Philadelphia TRACON
Fri 03:45:52 AM 40.0833 -75.2000 229° Southwest 168 193 4,000  Level Philadelphia TRACON
Fri 03:46:52 AM 40.0500 -75.2500 229° Southwest 169 194 4,000  Level Philadelphia TRACON
Fri 03:47:52 AM 40.0167 -75.3000 229° Southwest 170 196 4,000  Level Philadelphia TRACON
Fri 03:48:52 AM 40.0000 -75.3500 246° West 170 196 4,000  Level Philadelphia TRACON
Fri 03:49:52 AM 39.9667 -75.3833 217° Southwest 169 194 4,000  Level Philadelphia TRACON
Fri 03:50:52 AM 39.9333 -75.4333 229° Southwest 168 193 4,000  Level Philadelphia TRACON
Fri 03:51:52 AM 39.9000 -75.4833 229° Southwest 168 193 4,000  Level Philadelphia TRACON
Fri 03:52:52 AM 39.8833 -75.5333 247° West 171 197 4,000  Level Philadelphia TRACON
Fri 03:53:52 AM 39.8500 -75.5833 229° Southwest 170 196 4,000  Level Philadelphia TRACON
Fri 03:54:52 AM 39.8167 -75.6333 229° Southwest 170 196 4,000  Level Philadelphia TRACON
Fri 03:55:52 AM 39.7833 -75.6833 229° Southwest 168 193 4,000  Level Philadelphia TRACON
Fri 03:56:52 AM 39.7667 -75.7333 247° West 171 197 4,000  Level Philadelphia TRACON
Fri 03:59:09 AM 39.7000 -75.8333 229° Southwest 170 196 4,000  Level Potomac TRACON
Fri 04:00:10 AM 39.6667 -75.8833 229° Southwest 170 196 4,000  Level Potomac TRACON
Fri 04:01:10 AM 39.6333 -75.9333 229° Southwest 172 198 4,000  Level Potomac TRACON
Fri 04:02:10 AM 39.6167 -75.9833 247° West 170 196 4,000  Level Potomac TRACON
Fri 04:03:10 AM 39.6000 -76.0333 247° West 171 197 4,000  Level Potomac TRACON
Fri 04:04:10 AM 39.5667 -76.1000 237° Southwest 170 196 4,000  Level Potomac TRACON
Fri 04:05:10 AM 39.5500 -76.1500 247° West 172 198 4,000  Level Potomac TRACON
Fri 04:06:10 AM 39.5167 -76.2000 229° Southwest 173 199 4,000  Level Potomac TRACON
Fri 04:07:10 AM 39.5000 -76.2500 247° West 170 196 4,000  Level Potomac TRACON
Fri 04:08:10 AM 39.4667 -76.3000 229° Southwest 173 199 4,000  Level Potomac TRACON
Fri 04:09:10 AM 39.4333 -76.3500 229° Southwest 172 198 4,000 -50 Level Potomac TRACON
Fri 04:10:10 AM 39.4000 -76.4000 229° Southwest 172 198 3,900 -200 Descending Potomac TRACON
Fri 04:11:10 AM 39.3667 -76.4500 229° Southwest 180 207 3,600 -300 Descending Potomac TRACON
Fri 04:12:10 AM 39.3333 -76.4833 218° Southwest 177 204 3,300 -400 Descending Potomac TRACON
Fri 04:13:10 AM 39.3000 -76.5500 237° Southwest 183 211 2,800 -550 Descending Potomac TRACON
Fri 04:14:10 AM 39.2667 -76.5833 218° Southwest 179 206 2,200 -700 Descending Potomac TRACON
Fri 04:15:10 AM 39.2333 -76.6333 229° Southwest 168 193 1,400 -800 Descending Potomac TRACON
Fri 04:16:10 AM 39.2000 -76.6667 218° Southwest 131 151 600 -800 Descending Potomac TRACON
Fri 04:18:00 AM 39.1754 -76.6683 270° West  Level Estimated
Fri 04:25:00 AM 39.1754 -76.6683 270° West  Level Estimated
Fri 04:26:00 AM 39.1754 -76.6683 270° West  Level Estimated

Login

Don't have an account? Register now (free) for customized features, flight alerts, and more!